Engle, Kentucky
Current Conditions -  °F | °C
As of 3:53 PM on Friday 28 Nov 2014 (Local Time) from KJKL Reporting Station
Overcast Overcast  
Wind Chill: 35°   Ceiling: 12000
Heat Index: 35°   Visibility: 10mi
Dew Point: 17°   Wind: 0mph
Humidity: 48%   Direction: NA
Pressure: 30.26"   Gusts: NA
Location:  37.36°N, 83.3231°W
Report Text: KJKL 282053Z AUTO 00000KT 10SM OVC120 02/M08 A3026 RMK AO2 SLP257 T00171083 56019
Loading
Personal Weather Stations






























Interactive Weather Map New forecast layout! Learn more

10-Day Weather Forecast

Advertisements
Track Severe Weather on mobile